Time;durP1;ratioP1;P1;durP2;ratioP2;P2;SDS_P1;SDS_P2;PMS_P1;PMS_P2;Temp;Humidity;BMP_temperature;BMP_pressure;BME280_temperature;BME280_humidity;BME280_pressure;Samples;Min_cycle;Max_cycle;Signal;HPM_P1;HPM_P2
2022/02/23 00:01:08;;;;;;;21.52;2.65;;;8.00;99.90;;;;;;5013955;28;20030;-77
2022/02/23 00:03:34;;;;;;;24.20;2.97;;;8.00;99.90;;;;;;5014191;28;20107;-81
2022/02/23 00:06:00;;;;;;;31.17;3.88;;;8.00;99.90;;;;;;5014421;28;20026;-79
2022/02/23 00:08:25;;;;;;;22.80;2.72;;;8.00;99.90;;;;;;5014132;28;20030;-80
2022/02/23 00:10:51;;;;;;;18.67;3.00;;;8.10;99.90;;;;;;5013733;28;20033;-81
2022/02/23 00:13:17;;;;;;;20.83;2.85;;;8.00;99.90;;;;;;5013959;28;20129;-79
2022/02/23 00:15:42;;;;;;;27.90;3.28;;;7.90;99.90;;;;;;5013890;28;20114;-80
2022/02/23 00:18:12;;;;;;;20.75;3.03;;;7.90;99.90;;;;;;5014089;28;20368;-79
2022/02/23 00:20:38;;;;;;;33.78;3.53;;;7.90;99.90;;;;;;5014050;28;20605;-80
2022/02/23 00:23:04;;;;;;;25.60;3.67;;;7.90;99.90;;;;;;5013630;28;20099;-80
2022/02/23 00:25:29;;;;;;;22.77;3.10;;;7.80;99.90;;;;;;5013706;28;20030;-80
2022/02/23 00:27:55;;;;;;;26.42;3.38;;;7.90;99.90;;;;;;5013439;28;20034;-82
2022/02/23 00:30:21;;;;;;;21.58;3.78;;;7.90;99.90;;;;;;5014166;28;20060;-81
2022/02/23 00:32:47;;;;;;;21.70;3.58;;;7.80;99.90;;;;;;5013514;28;20109;-80
2022/02/23 00:35:12;;;;;;;29.05;2.45;;;7.80;99.90;;;;;;5013399;28;20057;-80
2022/02/23 00:37:38;;;;;;;30.13;4.47;;;7.80;99.90;;;;;;5013277;28;20041;-81
2022/02/23 00:40:04;;;;;;;19.15;2.83;;;7.80;99.90;;;;;;4995937;28;20041;-81
2022/02/23 00:42:29;;;;;;;27.23;2.92;;;7.70;99.90;;;;;;4996560;28;20069;-82
2022/02/23 00:44:55;;;;;;;25.20;3.55;;;7.70;99.90;;;;;;5013301;28;20026;-79
2022/02/23 00:47:20;;;;;;;21.35;3.30;;;7.60;99.90;;;;;;5013394;28;20142;-80
2022/02/23 00:49:47;;;;;;;26.08;2.95;;;7.60;99.90;;;;;;5013524;28;20034;-80
2022/02/23 00:52:13;;;;;;;21.00;3.28;;;7.60;99.90;;;;;;4996019;28;20429;-80
2022/02/23 00:54:39;;;;;;;26.48;4.05;;;7.60;99.90;;;;;;4995563;28;20049;-80
2022/02/23 00:57:04;;;;;;;27.23;3.38;;;7.70;99.90;;;;;;5013767;28;20102;-81
2022/02/23 00:59:30;;;;;;;27.67;3.45;;;7.60;99.90;;;;;;5012863;28;20052;-80
2022/02/23 01:01:56;;;;;;;27.90;3.63;;;7.60;99.90;;;;;;4995524;28;20030;-82
2022/02/23 01:04:21;;;;;;;32.33;3.65;;;7.70;99.90;;;;;;5012874;28;20117;-80
2022/02/23 01:06:47;;;;;;;44.17;3.58;;;7.60;99.90;;;;;;5013184;28;20088;-81
2022/02/23 01:09:13;;;;;;;19.50;2.67;;;7.60;99.90;;;;;;5013382;28;20030;-80
2022/02/23 01:11:40;;;;;;;20.90;2.88;;;7.70;99.90;;;;;;5012785;28;20038;-79
2022/02/23 01:14:06;;;;;;;29.23;4.50;;;7.70;99.90;;;;;;4995536;28;20041;-80
2022/02/23 01:16:33;;;;;;;28.80;3.67;;;7.70;99.90;;;;;;5012787;28;20809;-78
2022/02/23 01:18:58;;;;;;;22.13;2.67;;;7.70;99.90;;;;;;5012822;28;20328;-81
2022/02/23 01:21:24;;;;;;;27.83;3.47;;;7.70;99.90;;;;;;5013268;28;20021;-80
2022/02/23 01:23:50;;;;;;;19.63;3.22;;;7.80;99.90;;;;;;4995285;28;20037;-79
2022/02/23 01:26:15;;;;;;;25.67;3.63;;;7.80;99.90;;;;;;5012493;28;20033;-80
2022/02/23 01:28:41;;;;;;;27.15;3.10;;;7.80;99.90;;;;;;5012552;28;20034;-81
2022/02/23 01:31:07;;;;;;;22.95;2.88;;;7.80;99.90;;;;;;4994974;28;20038;-79
2022/02/23 01:33:33;;;;;;;33.42;3.88;;;7.90;99.90;;;;;;4994987;28;20364;-79
2022/02/23 01:35:58;;;;;;;29.15;3.88;;;7.90;99.90;;;;;;5012540;28;20050;-79
2022/02/23 01:38:24;;;;;;;24.58;3.03;;;7.90;99.90;;;;;;5012411;28;20026;-80
2022/02/23 01:40:50;;;;;;;17.52;2.75;;;7.90;99.90;;;;;;5012228;28;20089;-79
2022/02/23 01:43:15;;;;;;;15.00;2.20;;;7.90;99.90;;;;;;5012189;28;20113;-79
2022/02/23 01:45:41;;;;;;;24.42;3.15;;;7.80;99.90;;;;;;5011950;28;20026;-79
2022/02/23 01:48:06;;;;;;;25.58;2.80;;;7.80;99.90;;;;;;5012672;28;20022;-81
2022/02/23 01:50:32;;;;;;;22.17;3.17;;;7.80;99.90;;;;;;5012152;28;20054;-81
2022/02/23 01:52:58;;;;;;;27.42;4.13;;;7.80;99.90;;;;;;4994693;28;20113;-80
2022/02/23 01:55:23;;;;;;;25.92;3.80;;;7.80;99.90;;;;;;5012082;28;20376;-80
2022/02/23 01:57:49;;;;;;;29.27;3.90;;;7.80;99.90;;;;;;5011970;28;20025;-79
2022/02/23 02:00:16;;;;;;;22.65;2.97;;;7.70;99.90;;;;;;5012284;28;20030;-80
2022/02/23 02:02:46;;;;;;;18.42;3.55;;;7.70;99.90;;;;;;5011659;28;20592;-80
2022/02/23 02:05:12;;;;;;;28.80;3.55;;;7.80;99.90;;;;;;5012007;28;20080;-81
2022/02/23 02:07:38;;;;;;;24.70;3.35;;;7.80;99.90;;;;;;5011367;28;20061;-80
2022/02/23 02:10:05;;;;;;;16.20;3.00;;;7.80;99.90;;;;;;5011708;28;20149;-81
2022/02/23 02:12:31;;;;;;;23.80;3.70;;;7.70;99.90;;;;;;5011821;28;20014;-77
2022/02/23 02:14:59;;;;;;;19.92;2.80;;;7.70;99.90;;;;;;4994822;28;20487;-80
2022/02/23 02:17:25;;;;;;;;;;;7.80;99.90;;;;;;5011938;28;20368;-80
2022/02/23 02:19:51;;;;;;;29.33;3.10;;;7.70;99.90;;;;;;5011686;28;19913;-81
2022/02/23 02:22:16;;;;;;;29.30;3.28;;;7.70;99.90;;;;;;5011677;28;20088;-80
2022/02/23 02:24:42;;;;;;;20.73;3.30;;;7.70;99.90;;;;;;5011788;28;20034;-81
2022/02/23 02:27:14;;;;;;;16.48;2.45;;;7.80;99.90;;;;;;5012149;28;20376;-80
2022/02/23 02:29:40;;;;;;;22.70;3.38;;;7.80;99.90;;;;;;5011567;28;20030;-82
2022/02/23 02:32:08;;;;;;;22.23;3.25;;;7.80;99.90;;;;;;5011407;28;20029;-80
2022/02/23 02:34:34;;;;;;;25.52;3.38;;;7.70;99.90;;;;;;5011617;28;20236;-80
2022/02/23 02:37:00;;;;;;;23.17;2.80;;;7.60;99.90;;;;;;5028702;28;20049;-80
2022/02/23 02:39:26;;;;;;;15.63;2.75;;;7.70;99.90;;;;;;5031630;28;20031;-80
2022/02/23 02:41:52;;;;;;;22.88;2.88;;;7.70;99.90;;;;;;5031578;28;20033;-82
2022/02/23 02:44:18;;;;;;;35.05;3.50;;;7.70;99.90;;;;;;5013932;28;20064;-81
2022/02/23 02:46:45;;;;;;;18.35;2.88;;;7.70;99.90;;;;;;5032685;28;20054;-81
2022/02/23 02:49:11;;;;;;;26.08;2.72;;;7.60;99.90;;;;;;5037598;28;20029;-82
2022/02/23 02:51:37;;;;;;;18.10;2.47;;;7.70;99.90;;;;;;5036238;28;20212;-81
2022/02/23 02:54:04;;;;;;;18.00;3.08;;;7.70;99.90;;;;;;5035227;28;20109;-81
2022/02/23 02:56:30;;;;;;;26.40;4.00;;;7.70;99.90;;;;;;5033278;28;20455;-85
2022/02/23 02:58:56;;;;;;;21.33;2.22;;;7.70;99.90;;;;;;5034666;28;20105;-81
2022/02/23 03:01:24;;;;;;;24.55;3.30;;;7.80;99.90;;;;;;5038764;28;20026;-82
2022/02/23 03:03:50;;;;;;;13.48;2.40;;;7.70;99.90;;;;;;5037503;28;20026;-79
2022/02/23 03:06:17;;;;;;;21.25;3.17;;;7.80;99.90;;;;;;5032627;28;20018;-81
2022/02/23 03:08:44;;;;;;;27.05;3.03;;;7.60;99.90;;;;;;5031158;28;20033;-80
2022/02/23 03:11:09;;;;;;;24.23;3.13;;;7.60;99.90;;;;;;5030662;28;20034;-81
2022/02/23 03:13:36;;;;;;;23.08;2.83;;;7.60;99.90;;;;;;5013553;28;20117;-82
2022/02/23 03:16:05;;;;;;;25.80;3.30;;;7.70;99.90;;;;;;5031145;28;20473;-80
2022/02/23 03:18:31;;;;;;;22.10;2.97;;;7.70;99.90;;;;;;5032097;28;20018;-81
2022/02/23 03:20:56;;;;;;;21.13;3.58;;;7.50;99.90;;;;;;5033876;28;20041;-80
2022/02/23 03:23:22;;;;;;;23.17;2.88;;;7.60;99.90;;;;;;5034963;28;20034;-81
2022/02/23 03:25:47;;;;;;;12.75;2.25;;;7.60;99.90;;;;;;5034859;28;20431;-82
2022/02/23 03:28:13;;;;;;;22.08;3.15;;;7.60;99.90;;;;;;5035216;28;20037;-83
2022/02/23 03:30:39;;;;;;;21.75;3.05;;;7.60;99.90;;;;;;5034983;28;20083;-82
2022/02/23 03:33:06;;;;;;;16.35;2.17;;;7.60;99.90;;;;;;5035001;28;20030;-81
2022/02/23 03:35:31;;;;;;;27.42;3.33;;;7.60;99.90;;;;;;5034430;28;20055;-82
2022/02/23 03:37:58;;;;;;;21.77;4.10;;;7.60;99.90;;;;;;5034543;28;20208;-81
2022/02/23 03:40:25;;;;;;;21.65;2.50;;;7.50;99.90;;;;;;5034688;28;20040;-81
2022/02/23 03:42:51;;;;;;;16.20;2.72;;;7.60;99.90;;;;;;5034378;28;20100;-82
2022/02/23 03:45:17;;;;;;;20.95;2.90;;;7.60;99.90;;;;;;5035307;28;20100;-80
2022/02/23 03:47:43;;;;;;;17.92;2.33;;;7.60;99.90;;;;;;5034668;28;20041;-80
2022/02/23 03:50:09;;;;;;;18.83;2.88;;;7.50;99.90;;;;;;5034467;28;20025;-80
2022/02/23 03:52:34;;;;;;;25.65;3.17;;;7.60;99.90;;;;;;5034674;28;20029;-79
2022/02/23 03:55:00;;;;;;;21.17;3.10;;;7.60;99.90;;;;;;5034152;28;20431;-79
2022/02/23 03:57:26;;;;;;;19.38;2.85;;;7.50;99.80;;;;;;5034733;28;20017;-78
2022/02/23 03:59:52;;;;;;;24.70;2.75;;;7.50;99.80;;;;;;5034223;28;20120;-79
2022/02/23 04:02:17;;;;;;;20.27;3.25;;;7.40;99.90;;;;;;5016555;28;20108;-78
2022/02/23 04:04:43;;;;;;;25.15;3.22;;;7.40;99.80;;;;;;5034195;28;20030;-80
2022/02/23 04:07:09;;;;;;;22.35;2.67;;;7.40;99.80;;;;;;5034153;28;20025;-79
2022/02/23 04:09:34;;;;;;;27.65;3.40;;;7.40;99.80;;;;;;5033991;28;20038;-81
2022/02/23 04:12:00;;;;;;;22.85;3.17;;;7.30;99.80;;;;;;5016920;28;20053;-80
2022/02/23 04:14:26;;;;;;;21.60;3.05;;;7.20;99.90;;;;;;5033646;28;20483;-80
2022/02/23 04:16:52;;;;;;;22.30;3.05;;;7.20;99.90;;;;;;5033689;28;20021;-80
2022/02/23 04:19:17;;;;;;;27.20;2.95;;;7.30;99.90;;;;;;5033751;28;20045;-80
2022/02/23 04:21:43;;;;;;;25.85;3.05;;;7.30;99.70;;;;;;5033917;28;20111;-80
2022/02/23 04:24:09;;;;;;;18.50;2.92;;;7.20;99.80;;;;;;5034237;28;20108;-80
2022/02/23 04:26:35;;;;;;;23.55;2.70;;;7.30;99.80;;;;;;5033659;28;20064;-82
2022/02/23 04:29:02;;;;;;;22.23;3.00;;;7.20;99.80;;;;;;5033658;28;20026;-80
2022/02/23 04:31:28;;;;;;;20.85;3.13;;;7.20;99.90;;;;;;5033014;28;20037;-80
2022/02/23 04:33:54;;;;;;;21.42;2.60;;;7.30;99.80;;;;;;5033432;28;20576;-81
2022/02/23 04:36:19;;;;;;;14.90;2.78;;;7.20;99.50;;;;;;5034357;28;20196;-81
2022/02/23 04:38:45;;;;;;;19.30;3.30;;;7.30;99.70;;;;;;5033593;28;20372;-81
2022/02/23 04:41:11;;;;;;;23.27;2.60;;;7.30;99.60;;;;;;5033942;28;20045;-79
2022/02/23 04:43:37;;;;;;;28.05;2.92;;;7.30;99.60;;;;;;5034029;28;20037;-80
2022/02/23 04:46:08;;;;;;;27.08;2.95;;;7.30;99.60;;;;;;5034240;28;20359;-81
2022/02/23 04:48:34;;;;;;;15.82;2.40;;;7.30;99.60;;;;;;5033778;28;20081;-78
2022/02/23 04:51:00;;;;;;;25.13;3.13;;;7.30;99.70;;;;;;5034225;28;20109;-79
2022/02/23 04:53:25;;;;;;;24.73;2.80;;;7.20;99.70;;;;;;5034183;28;20156;-80
2022/02/23 04:55:51;;;;;;;19.75;2.88;;;7.20;99.80;;;;;;5033167;28;20026;-81
2022/02/23 04:58:17;;;;;;;17.30;2.90;;;7.20;99.80;;;;;;5033412;28;20036;-79
2022/02/23 05:00:42;;;;;;;30.60;3.45;;;7.20;99.90;;;;;;5033126;28;20037;-79
2022/02/23 05:03:08;;;;;;;14.98;2.45;;;7.10;99.90;;;;;;5034056;28;20025;-78
2022/02/23 05:05:34;;;;;;;28.70;2.92;;;7.10;99.90;;;;;;5016850;28;20064;-78
2022/02/23 05:08:00;;;;;;;27.05;2.60;;;7.10;99.90;;;;;;5034878;28;20093;-78
2022/02/23 05:10:26;;;;;;;20.88;3.13;;;7.10;99.90;;;;;;5034484;28;20033;-81
2022/02/23 05:12:52;;;;;;;21.17;2.50;;;7.00;99.90;;;;;;5033563;28;20371;-82
2022/02/23 05:15:17;;;;;;;29.10;4.25;;;6.90;99.90;;;;;;5033634;28;20041;-81
2022/02/23 05:17:43;;;;;;;23.55;2.67;;;7.10;99.90;;;;;;5033130;28;20036;-81
2022/02/23 05:20:10;;;;;;;28.23;4.43;;;6.90;99.90;;;;;;5015381;28;20457;-81
2022/02/23 05:22:36;;;;;;;23.25;3.10;;;6.90;99.90;;;;;;5032877;28;20057;-82
2022/02/23 05:25:02;;;;;;;18.70;3.72;;;7.00;99.90;;;;;;5014860;28;20057;-79
2022/02/23 05:27:28;;;;;;;17.67;3.42;;;7.00;99.90;;;;;;5032790;28;20096;-80
2022/02/23 05:29:54;;;;;;;18.23;2.55;;;7.00;99.90;;;;;;5015014;28;20444;-80
2022/02/23 05:32:20;;;;;;;22.88;3.35;;;7.00;99.90;;;;;;5014921;28;20037;-80
2022/02/23 05:34:45;;;;;;;25.55;2.83;;;7.00;99.90;;;;;;5014481;28;20087;-80
2022/02/23 05:37:12;;;;;;;23.00;3.58;;;6.90;99.90;;;;;;5032327;28;20382;-80
2022/02/23 05:39:37;;;;;;;19.45;2.92;;;7.00;99.90;;;;;;5014366;28;20149;-80
2022/02/23 05:42:03;;;;;;;22.38;3.38;;;7.10;99.90;;;;;;5031817;28;20434;-80
2022/02/23 05:44:29;;;;;;;26.70;2.75;;;7.00;99.90;;;;;;5031708;28;20036;-80
2022/02/23 05:46:55;;;;;;;15.35;2.45;;;7.00;99.90;;;;;;5032193;28;20506;-80
2022/02/23 05:49:20;;;;;;;31.05;3.55;;;7.00;99.90;;;;;;5031957;28;20257;-80
2022/02/23 05:51:50;;;;;;;21.73;3.10;;;7.00;99.90;;;;;;5014289;28;20057;-82
2022/02/23 05:54:16;;;;;;;25.70;3.17;;;6.90;99.90;;;;;;5032621;28;20029;-80
2022/02/23 05:56:43;;;;;;;25.63;3.42;;;7.00;99.90;;;;;;5031941;28;20029;-80
2022/02/23 05:59:09;;;;;;;19.70;3.15;;;7.00;99.90;;;;;;5031728;28;20359;-81
2022/02/23 06:01:38;;;;;;;24.75;3.88;;;7.00;99.90;;;;;;5031677;28;20040;-81
2022/02/23 06:04:04;;;;;;;27.02;3.28;;;7.00;99.90;;;;;;5031756;28;20168;-80
2022/02/23 06:06:30;;;;;;;21.73;3.45;;;7.00;99.90;;;;;;5031941;28;20029;-81
2022/02/23 06:08:56;;;;;;;21.55;3.33;;;7.10;99.90;;;;;;5013900;28;20463;-80
2022/02/23 06:11:22;;;;;;;29.05;3.38;;;7.10;99.90;;;;;;5013847;28;20115;-80
2022/02/23 06:13:51;;;;;;;38.33;3.38;;;7.20;99.90;;;;;;5031377;28;20120;-81
2022/02/23 06:16:22;;;;;;;34.45;4.90;;;7.20;99.90;;;;;;5031393;28;20459;-80
2022/02/23 06:18:48;;;;;;;23.15;3.58;;;7.10;99.90;;;;;;5031617;28;20048;-81
2022/02/23 06:21:14;;;;;;;30.45;3.38;;;7.10;99.90;;;;;;5014507;28;20030;-80
2022/02/23 06:23:40;;;;;;;33.30;4.05;;;7.20;99.90;;;;;;5031234;28;20032;-79
2022/02/23 06:26:06;;;;;;;34.20;4.25;;;7.10;99.90;;;;;;5031166;28;20029;-80
2022/02/23 06:28:32;;;;;;;23.45;3.42;;;7.10;99.90;;;;;;5031189;28;20447;-81
2022/02/23 06:30:58;;;;;;;24.50;4.13;;;7.10;99.90;;;;;;5031139;28;20037;-80
2022/02/23 06:33:25;;;;;;;36.83;3.95;;;7.10;99.90;;;;;;5031627;28;20030;-82
2022/02/23 06:35:51;;;;;;;16.90;2.83;;;7.10;99.90;;;;;;5031652;28;20459;-82
2022/02/23 06:38:18;;;;;;;28.00;3.22;;;7.20;99.90;;;;;;5032696;28;20030;-81
2022/02/23 06:40:45;;;;;;;28.80;3.10;;;7.20;99.90;;;;;;5019712;28;20066;-82
2022/02/23 06:43:14;;;;;;;30.35;3.65;;;7.20;99.90;;;;;;5011864;28;20113;-81
2022/02/23 06:45:39;;;;;;;29.98;3.38;;;7.20;99.90;;;;;;4994246;28;20080;-80
2022/02/23 06:48:05;;;;;;;28.17;3.67;;;7.20;99.90;;;;;;5012269;28;20436;-81
2022/02/23 06:50:32;;;;;;;19.83;3.83;;;7.20;99.90;;;;;;5011909;28;20022;-79
2022/02/23 06:52:58;;;;;;;25.58;3.45;;;7.20;99.90;;;;;;5011913;28;20064;-80
2022/02/23 06:55:24;;;;;;;27.92;3.53;;;7.20;99.90;;;;;;5015247;28;20033;-81
2022/02/23 06:57:50;;;;;;;33.97;4.00;;;7.20;99.90;;;;;;5015787;28;20030;-84
2022/02/23 07:00:15;;;;;;;25.75;3.38;;;7.10;99.90;;;;;;5016185;28;20069;-81
2022/02/23 07:02:41;;;;;;;26.92;3.63;;;7.10;99.90;;;;;;5015732;28;20116;-80
2022/02/23 07:05:07;;;;;;;23.85;3.22;;;7.10;99.90;;;;;;5009642;28;20082;-80
2022/02/23 07:07:33;;;;;;;26.83;3.70;;;7.20;99.90;;;;;;4996071;28;20026;-82
2022/02/23 07:09:58;;;;;;;21.98;4.43;;;7.20;99.90;;;;;;4995902;28;20038;-82
2022/02/23 07:12:25;;;;;;;23.17;3.33;;;7.30;99.90;;;;;;4979077;28;20026;-82
2022/02/23 07:14:51;;;;;;;23.42;3.75;;;7.30;99.90;;;;;;4994531;28;20041;-80
2022/02/23 07:17:16;;;;;;;26.08;3.53;;;7.40;99.90;;;;;;4995491;28;20030;-81
2022/02/23 07:19:42;;;;;;;24.60;3.20;;;7.50;99.90;;;;;;4994805;28;20038;-79
2022/02/23 07:22:07;;;;;;;27.60;4.25;;;7.50;99.90;;;;;;4995026;28;20034;-83
2022/02/23 07:24:35;;;;;;;20.00;3.38;;;7.50;99.90;;;;;;4995090;28;20388;-79
2022/02/23 07:27:01;;;;;;;30.92;2.85;;;7.50;99.90;;;;;;4995579;28;20309;-78
2022/02/23 07:29:26;;;;;;;24.10;3.58;;;7.50;99.90;;;;;;4995087;28;20044;-79
2022/02/23 07:31:52;;;;;;;29.48;3.45;;;7.50;99.90;;;;;;4995041;28;20436;-81
2022/02/23 07:34:18;;;;;;;19.80;2.63;;;7.40;99.80;;;;;;4995417;28;20049;-78
2022/02/23 07:36:44;;;;;;;23.88;3.58;;;7.60;99.90;;;;;;4977789;28;20133;-85
2022/02/23 07:39:12;;;;;;;24.90;4.03;;;7.60;99.80;;;;;;4996604;28;20388;-86
2022/02/23 07:41:38;;;;;;;20.65;3.63;;;7.60;99.80;;;;;;4978052;28;20078;-80
2022/02/23 07:44:04;;;;;;;22.80;3.88;;;7.60;99.80;;;;;;4994907;28;20456;-83
2022/02/23 07:46:29;;;;;;;26.33;3.60;;;7.70;99.90;;;;;;4995931;28;20018;-83
2022/02/23 07:49:00;;;;;;;23.88;5.22;;;7.70;99.70;;;;;;4979508;28;20445;-80
2022/02/23 07:51:28;;;;;;;22.35;2.90;;;7.80;99.70;;;;;;4996360;28;20083;-83
2022/02/23 07:53:55;;;;;;;26.52;4.47;;;7.80;99.50;;;;;;4996415;28;20110;-86
2022/02/23 07:56:23;;;;;;;51.55;15.48;;;7.70;99.50;;;;;;4997834;28;20118;-89
2022/02/23 07:58:51;;;;;;;20.50;3.83;;;7.80;99.60;;;;;;4995896;28;20038;-86
2022/02/23 08:01:32;;;;;;;24.23;4.10;;;7.90;99.50;;;;;;4978193;28;20469;-89
2022/02/23 08:03:58;;;;;;;21.35;3.80;;;8.00;99.40;;;;;;4994966;28;20097;-83
2022/02/23 08:06:24;;;;;;;24.05;3.03;;;7.90;99.30;;;;;;4994145;28;20045;-82
2022/02/23 08:08:50;;;;;;;29.25;3.60;;;8.00;99.40;;;;;;4994541;28;20034;-84
2022/02/23 08:11:18;;;;;;;23.92;3.30;;;8.10;99.40;;;;;;4977348;28;20149;-84
2022/02/23 08:13:44;;;;;;;21.73;2.95;;;8.10;99.20;;;;;;4994488;28;20064;-83
2022/02/23 08:21:40;;;;;;;23.30;2.72;;;8.20;99.30;;;;;;4994024;28;20088;-79
2022/02/23 08:24:06;;;;;;;26.02;3.05;;;8.30;99.10;;;;;;4994327;28;20026;-77
2022/02/23 08:26:31;;;;;;;25.13;3.95;;;8.40;99.20;;;;;;4994382;28;20109;-80
2022/02/23 08:28:57;;;;;;;24.75;3.85;;;8.50;99.00;;;;;;4976916;28;20042;-78
2022/02/23 08:31:22;;;;;;;19.45;3.55;;;8.40;98.80;;;;;;4976279;28;20129;-77
2022/02/23 08:33:48;;;;;;;19.83;3.00;;;8.50;98.70;;;;;;4994479;28;20080;-78
2022/02/23 08:36:14;;;;;;;29.98;5.47;;;8.60;98.70;;;;;;4993998;28;20054;-79
2022/02/23 08:38:41;;;;;;;21.05;3.70;;;8.80;98.80;;;;;;4994349;28;20053;-80
2022/02/23 08:41:08;;;;;;;16.67;2.78;;;8.70;98.40;;;;;;4995983;28;20039;-89
2022/02/23 08:43:34;;;;;;;27.33;4.18;;;8.70;98.30;;;;;;4997172;28;20045;-83
2022/02/23 08:46:00;;;;;;;22.92;3.55;;;8.70;98.30;;;;;;4996041;28;20363;-83
2022/02/23 08:48:27;;;;;;;26.23;3.95;;;8.90;98.50;;;;;;4978639;28;20072;-82
2022/02/23 08:50:53;;;;;;;26.38;3.78;;;8.80;98.20;;;;;;4995873;28;20118;-82
2022/02/23 08:53:18;;;;;;;27.42;3.97;;;9.10;98.20;;;;;;4995525;28;20081;-84
2022/02/23 08:55:44;;;;;;;28.17;4.05;;;8.90;98.10;;;;;;4995006;28;20143;-85
2022/02/23 08:58:13;;;;;;;30.33;4.20;;;9.30;97.50;;;;;;4995168;28;20108;-84
2022/02/23 09:00:39;;;;;;;27.23;3.35;;;10.10;96.40;;;;;;4995358;28;20027;-88
2022/02/23 09:03:05;;;;;;;20.15;3.40;;;10.60;96.00;;;;;;4995320;28;20492;-84
2022/02/23 09:05:31;;;;;;;16.17;3.20;;;11.30;95.30;;;;;;4995163;28;20045;-84
2022/02/23 09:07:57;;;;;;;25.67;4.13;;;12.00;94.90;;;;;;4995967;28;20717;-87
2022/02/23 09:10:23;;;;;;;15.15;2.95;;;12.20;93.60;;;;;;4996654;28;20041;-88
2022/02/23 09:12:48;;;;;;;25.27;3.25;;;12.50;93.30;;;;;;4996673;28;20411;-87
2022/02/23 09:15:17;;;;;;;19.13;3.45;;;12.60;93.20;;;;;;4996781;28;20026;-86
2022/02/23 09:17:44;;;;;;;18.27;3.78;;;12.80;92.30;;;;;;4979467;28;20442;-84
2022/02/23 09:20:11;;;;;;;13.90;2.90;;;13.30;92.60;;;;;;4993259;28;20057;-87
2022/02/23 09:22:36;;;;;;;18.80;3.67;;;13.70;91.70;;;;;;4994349;28;20034;-85
2022/02/23 09:25:02;;;;;;;17.33;3.50;;;14.10;90.90;;;;;;4995970;28;20084;-84
2022/02/23 09:27:28;;;;;;;12.98;3.13;;;14.70;90.30;;;;;;4996109;28;20114;-88
2022/02/23 09:29:54;;;;;;;14.63;3.30;;;14.60;86.80;;;;;;4994958;28;20062;-91
2022/02/23 09:32:21;;;;;;;17.38;4.82;;;15.30;88.30;;;;;;4996628;28;20038;-87
2022/02/23 09:34:47;;;;;;;18.27;4.07;;;16.30;85.20;;;;;;4997415;28;20038;-82
2022/02/23 09:37:12;;;;;;;15.45;3.45;;;16.00;81.50;;;;;;4994232;28;20276;-84
2022/02/23 09:39:38;;;;;;;9.50;2.60;;;16.40;81.20;;;;;;4996038;28;20090;-88
2022/02/23 09:42:04;;;;;;;17.33;3.88;;;17.00;79.30;;;;;;4996120;28;20029;-84
2022/02/23 09:44:32;;;;;;;19.45;3.30;;;17.40;78.80;;;;;;4994618;28;20033;-88
2022/02/23 09:47:00;;;;;;;28.38;4.55;;;17.60;73.80;;;;;;4993692;28;20083;-83
2022/02/23 09:49:26;;;;;;;21.05;5.07;;;17.70;78.10;;;;;;4993378;28;20390;-83
2022/02/23 09:51:51;;;;;;;13.32;3.10;;;18.80;72.80;;;;;;4993688;28;20027;-87
2022/02/23 09:54:17;;;;;;;14.90;3.15;;;18.10;72.20;;;;;;4994047;28;20065;-79
2022/02/23 09:56:45;;;;;;;17.92;3.13;;;18.30;69.80;;;;;;4974839;28;20042;-79
2022/02/23 09:59:12;;;;;;;16.33;3.33;;;18.80;69.30;;;;;;4991091;28;20581;-80
2022/02/23 10:01:40;;;;;;;16.88;3.45;;;19.10;72.40;;;;;;4993893;28;20031;-82
2022/02/23 10:04:07;;;;;;;12.05;2.40;;;19.90;70.20;;;;;;4995219;28;20118;-86
2022/02/23 10:06:35;;;;;;;12.70;3.30;;;20.10;65.70;;;;;;4995586;28;20102;-85
2022/02/23 10:09:06;;;;;;;;;;;20.40;66.00;;;;;;4995657;28;20069;-88
2022/02/23 10:11:33;;;;;;;15.25;2.83;;;20.30;63.40;;;;;;4994199;28;19957;-85
2022/02/23 10:14:02;;;;;;;14.18;3.08;;;19.90;63.50;;;;;;4993727;28;20027;-85
2022/02/23 10:16:47;;;;;;;14.63;3.08;;;19.70;64.20;;;;;;4994510;28;20022;-84
2022/02/23 10:19:18;;;;;;;15.07;4.05;;;20.60;63.90;;;;;;4995977;28;20323;-89
2022/02/23 10:21:44;;;;;;;11.40;3.25;;;19.70;62.40;;;;;;4995888;28;20084;-89
2022/02/23 10:24:27;;;;;;;14.13;2.90;;;19.90;63.30;;;;;;4996534;28;20076;-81
2022/02/23 10:27:13;;;;;;;13.40;3.50;;;20.40;62.10;;;;;;4994597;28;20115;-84
2022/02/23 10:29:49;;;;;;;19.83;2.95;;;19.90;62.30;;;;;;4995359;28;20044;-78
2022/02/23 10:32:15;;;;;;;13.23;2.45;;;19.70;60.10;;;;;;4992950;28;20041;-79
2022/02/23 10:34:44;;;;;;;15.15;3.10;;;19.90;62.70;;;;;;4995312;28;20042;-87
2022/02/23 10:37:11;;;;;;;13.48;2.75;;;20.50;61.90;;;;;;4996787;28;20031;-90
2022/02/23 10:39:40;;;;;;;15.38;3.67;;;21.10;60.50;;;;;;4995506;28;20113;-85
2022/02/23 10:42:10;;;;;;;15.43;3.03;;;21.10;59.40;;;;;;4996302;28;20051;-90
2022/02/23 10:44:42;;;;;;;17.20;2.97;;;21.30;59.30;;;;;;4993270;28;20333;-84
2022/02/23 10:47:12;;;;;;;10.75;2.28;;;21.50;58.80;;;;;;4992804;28;20037;-88
2022/02/23 10:49:37;;;;;;;10.13;2.60;;;21.10;59.00;;;;;;4992863;28;20124;-88
2022/02/23 10:52:09;;;;;;;18.25;3.22;;;21.20;57.30;;;;;;4993660;28;20034;-91
2022/02/23 10:54:35;;;;;;;10.48;2.28;;;20.00;58.70;;;;;;4992509;28;20037;-84
2022/02/23 10:57:18;;;;;;;10.77;2.80;;;19.90;59.60;;;;;;4992297;28;20025;-83
2022/02/23 10:59:49;;;;;;;8.60;2.47;;;20.20;58.10;;;;;;4992341;28;20034;-93
2022/02/23 11:02:15;;;;;;;11.90;2.50;;;20.60;58.40;;;;;;4975627;28;20417;-85
2022/02/23 11:04:41;;;;;;;13.90;3.03;;;21.00;56.70;;;;;;4992531;28;20057;-86
2022/02/23 11:07:07;;;;;;;14.07;2.80;;;22.10;58.00;;;;;;4992676;28;20331;-86
2022/02/23 11:09:34;;;;;;;13.10;2.65;;;22.90;55.80;;;;;;4993537;28;20452;-88
2022/02/23 11:12:01;;;;;;;9.43;2.28;;;22.10;54.30;;;;;;4992693;28;20037;-80
2022/02/23 11:14:28;;;;;;;13.40;2.72;;;21.00;55.30;;;;;;4992300;28;20050;-88
2022/02/23 11:16:54;;;;;;;16.25;2.70;;;22.50;55.30;;;;;;4994114;28;20058;-90
2022/02/23 11:19:21;;;;;;;9.57;1.98;;;21.30;53.90;;;;;;4992299;28;20089;-81
2022/02/23 11:21:47;;;;;;;8.02;2.03;;;20.90;54.60;;;;;;4991651;28;20026;-84
2022/02/23 11:24:13;;;;;;;18.75;2.85;;;21.00;54.50;;;;;;4992808;28;20433;-86
2022/02/23 11:26:42;;;;;;;9.82;2.50;;;21.10;54.50;;;;;;4992261;28;20042;-85
2022/02/23 11:29:24;;;;;;;9.68;2.20;;;20.20;54.00;;;;;;4993180;28;20038;-77
2022/02/23 11:31:52;;;;;;;8.38;1.92;;;20.50;54.30;;;;;;4990916;28;20042;-77
2022/02/23 11:34:21;;;;;;;7.95;1.60;;;20.70;54.50;;;;;;4990980;28;20096;-78
2022/02/23 11:36:49;;;;;;;10.98;2.92;;;20.60;54.30;;;;;;4991314;28;20137;-77
2022/02/23 11:39:19;;;;;;;;;;;21.50;52.70;;;;;;4991869;28;20022;-77
2022/02/23 11:41:52;;;;;;;13.13;2.97;;;20.40;52.70;;;;;;4993408;28;19910;-83
2022/02/23 11:44:25;;;;;;;9.63;1.92;;;20.50;54.50;;;;;;4994768;28;20070;-78
2022/02/23 11:46:50;;;;;;;6.80;2.05;;;19.20;53.70;;;;;;4994488;28;20034;-77
2022/02/23 11:52:21;;;;;;;11.27;2.17;;;20.50;55.70;;;;;;4996200;28;20471;-83
2022/02/23 11:58:35;;;;;;;10.70;2.20;;;21.20;55.00;;;;;;4994758;28;20061;-83
2022/02/23 12:01:01;;;;;;;7.50;1.70;;;21.40;53.50;;;;;;4994515;28;20390;-79
2022/02/23 12:03:28;;;;;;;9.38;1.83;;;19.90;54.30;;;;;;4996773;28;20340;-83
2022/02/23 12:06:09;;;;;;;6.43;1.60;;;19.20;53.60;;;;;;4996517;28;20035;-83
2022/02/23 12:08:47;;;;;;;8.70;2.13;;;17.10;54.90;;;;;;4998445;28;20046;-83
2022/02/23 12:11:16;;;;;;;;;;;16.90;56.00;;;;;;4996457;28;20043;-86
2022/02/23 12:13:51;;;;;;;12.43;2.30;;;16.50;56.70;;;;;;4996749;28;19936;-90
2022/02/23 12:16:27;;;;;;;10.63;2.17;;;16.50;57.40;;;;;;4996431;28;20439;-85
2022/02/23 12:18:58;;;;;;;12.05;2.35;;;16.20;58.00;;;;;;4996159;28;20038;-86
2022/02/23 12:21:45;;;;;;;9.65;1.80;;;16.20;57.60;;;;;;4994860;28;20038;-83
2022/02/23 12:24:15;;;;;;;9.00;1.75;;;16.40;57.70;;;;;;4995386;28;20045;-82
2022/02/23 12:26:41;;;;;;;10.13;1.92;;;15.70;58.50;;;;;;4996515;28;20030;-85
2022/02/23 12:29:09;;;;;;;14.15;2.42;;;15.10;59.40;;;;;;4997714;28;20100;-87
2022/02/23 12:31:39;;;;;;;8.32;2.03;;;14.90;59.70;;;;;;4998167;28;20034;-91
2022/02/23 12:34:08;;;;;;;14.13;2.15;;;14.90;60.00;;;;;;4997037;28;20058;-86
2022/02/23 12:36:36;;;;;;;8.63;2.47;;;14.80;60.20;;;;;;4996905;28;20108;-84
2022/02/23 12:39:05;;;;;;;10.45;2.42;;;14.90;59.80;;;;;;4995686;28;20015;-83
2022/02/23 12:41:33;;;;;;;8.65;2.20;;;14.80;60.20;;;;;;4996345;28;20069;-79
2022/02/23 12:44:34;;;;;;;9.48;2.40;;;15.10;60.10;;;;;;4995616;28;20058;-85
2022/02/23 12:47:06;;;;;;;14.38;4.32;;;14.60;60.20;;;;;;4977476;28;20050;-82
2022/02/23 12:49:33;;;;;;;7.82;1.70;;;14.70;59.90;;;;;;4995981;28;20033;-83
2022/02/23 12:52:00;;;;;;;8.52;1.92;;;14.60;60.10;;;;;;4994785;28;20026;-85
2022/02/23 12:54:28;;;;;;;7.88;2.13;;;14.50;60.90;;;;;;4996616;28;20025;-83
2022/02/23 12:56:56;;;;;;;6.13;1.40;;;14.40;60.70;;;;;;4996480;28;20081;-84